Latest Weather Observations for Dum In Mirrie

IDD60901

Issued at 7:31 pm CST Friday 19 December 2014 (issued every 10 minutes, with the page automatically refreshed every 10 minutes)

About weather observations | Map of Darwin area stations | Latest observations for Darwin area | Other Formats
Station Details ID: 014277 Name: DUM IN MIRRIE AIRSTRIP Lat: -12.63 Lon: 130.37 Height: 3.5 m
Data from the previous 72 hours. | See also: Recent months at Dum In Mirrie
Date/Time
CST
Tmp

°C
App
Tmp
°C
Dew
Point
°C
Rel
Hum
%
Delta-T

°C
Wind Press
QNH
hPa
Press
MSL
hPa
Rain
since
9 am
mm
Dir
 
Spd
km/h
Gust
km/h
Spd
kts
Gust
kts
19/07:30pm 29.4 34.0 23.1 69 4.3 ESE 4 9 2 5 1007.8 1007.8 0.0
19/07:00pm 31.2 37.9 26.5 76 3.4 SW 4 7 2 4 1007.6 1007.6 0.0
19/06:30pm 31.2 37.4 26.7 77 3.2 W 7 13 4 7 1007.3 1007.3 0.0
19/06:00pm 31.2 36.7 26.2 75 3.6 WNW 9 13 5 7 1006.3 1006.3 0.0
19/05:30pm 31.9 37.4 26.2 72 4.1 W 9 17 5 9 1006.4 1006.4 0.0
19/05:00pm 32.8 37.7 26.4 69 4.6 W 13 20 7 11 1005.7 1005.7 0.0
19/04:30pm 31.9 36.7 26.2 72 4.1 WNW 13 20 7 11 1005.9 1005.9 0.0
19/04:00pm 32.0 37.1 26.1 71 4.2 WNW 11 19 6 10 1006.4 1006.4 0.0
19/03:30pm 33.5 38.7 26.3 66 5.2 WNW 11 20 6 11 1006.6 1006.6 0.0
19/03:00pm 34.0 39.3 26.5 65 5.4 W 11 19 6 10 1007.0 1007.0 0.0
19/02:30pm 33.5 38.1 26.0 65 5.4 W 13 20 7 11 1007.5 1007.5 0.0
19/02:00pm 33.4 38.9 26.2 66 5.2 WNW 9 17 5 9 1007.9 1007.9 0.0
19/01:30pm 33.2 39.1 26.7 68 4.7 WNW 9 17 5 9 1008.5 1008.5 0.0
19/01:00pm 33.3 38.8 26.1 66 5.2 W 9 15 5 8 1009.0 1009.0 0.0
19/12:30pm 32.7 38.1 25.5 66 5.1 W 7 11 4 6 1009.6 1009.6 0.0
19/12:00pm 33.1 38.5 25.4 64 5.5 W 7 13 4 7 1009.6 1009.6 0.0
19/11:30am 32.8 37.9 25.6 66 5.1 WSW 9 13 5 7 1010.2 1010.2 0.0
19/11:00am 32.3 37.7 25.4 67 4.9 WSW 7 9 4 5 1010.4 1010.4 0.0
19/10:30am 32.4 37.8 25.2 66 5.1 W 6 9 3 5 1010.7 1010.7 0.0
19/10:00am 32.1 37.7 25.4 67 4.8 SW 6 7 3 4 1010.6 1010.6 0.0
19/09:30am 31.4 36.8 24.5 67 4.8 WSW 4 7 2 4 1010.5 1010.5 0.0
19/09:00am 31.2 36.3 24.6 68 4.6 WSW 6 7 3 4 1010.3 1010.3 0.0
19/08:30am 31.1 37.3 25.2 71 4.2 SW 2 4 1 2 1010.3 1010.3 0.0
19/08:00am 30.1 35.9 25.2 75 3.5 SW 4 6 2 3 1010.1 1010.1 0.0
19/07:30am 28.8 35.0 25.2 81 2.5 ESE 2 6 1 3 1009.8 1009.8 0.0
19/07:00am 28.4 33.9 24.6 80 2.6 SSW 4 11 2 6 1009.5 1009.5 0.0
19/06:30am 27.9 33.5 24.3 81 2.5 WNW 2 6 1 3 1009.1 1009.1 0.0
19/06:00am 28.0 34.1 25.0 84 2.1 SSW 2 20 1 11 1008.7 1008.7 0.0
19/05:30am 28.4 33.4 24.8 81 2.5 W 7 19 4 10 1008.2 1008.2 0.0
19/05:00am 29.4 33.4 23.8 72 3.9 SW 9 24 5 13 1008.1 1008.1 0.0
19/04:30am 30.2 36.4 26.4 80 2.7 W 6 9 3 5 1007.9 1007.9 0.0
19/04:00am 30.4 36.6 26.6 80 2.7 WNW 7 13 4 7 1007.8 1007.8 0.0
19/03:30am 30.3 36.6 26.5 80 2.7 WNW 6 9 3 5 1007.8 1007.8 0.0
19/03:00am 30.3 36.2 26.2 79 2.9 W 7 11 4 6 1007.9 1007.9 0.0
19/02:30am 30.3 36.4 26.5 80 2.7 WNW 7 11 4 6 1008.0 1008.0 0.0
19/02:00am 30.5 36.2 26.4 79 2.9 W 9 13 5 7 1008.3 1008.3 0.0
19/01:30am 30.6 36.2 26.3 78 3.1 WNW 9 15 5 8 1008.5 1008.5 0.0
19/01:00am 30.5 36.5 26.4 79 2.9 W 7 13 4 7 1008.7 1008.7 0.0
19/12:30am 30.4 36.2 25.7 76 3.3 W 6 11 3 6 1008.8 1008.8 0.0
19/12:00am 30.4 36.4 26.1 78 3.1 W 6 11 3 6 1008.9 1008.9 0.0
 
Date/Time
CST
Tmp

°C
App
Tmp
°C
Dew
Point
°C
Rel
Hum
%
Delta-T

°C
Wind Press
QNH
hPa
Press
MSL
hPa
Rain
since
9 am
mm
Dir
 
Spd
km/h
Gust
km/h
Spd
kts
Gust
kts
18/11:30pm 30.4 36.4 26.1 78 3.1 WNW 6 11 3 6 1008.7 1008.7 0.0
18/11:00pm 30.4 36.3 25.9 77 3.2 WNW 6 9 3 5 1008.7 1008.7 0.0
18/10:30pm 30.5 36.1 25.8 76 3.3 WNW 7 11 4 6 1008.6 1008.6 0.0
18/10:00pm 30.5 36.8 26.0 77 3.2 WNW 4 13 2 7 1008.4 1008.4 0.0
18/09:30pm 30.7 36.6 26.2 77 3.2 WNW 7 13 4 7 1008.4 1008.4 0.0
18/09:00pm 30.7 36.1 26.0 76 3.4 WNW 9 15 5 8 1008.0 1008.0 0.0
18/08:30pm 30.7 36.1 26.0 76 3.4 WNW 9 15 5 8 1007.9 1007.9 0.0
18/08:00pm 30.8 36.4 25.8 74 3.6 WNW 7 13 4 7 1007.8 1007.8 0.0
18/07:30pm 30.8 36.8 26.1 76 3.4 WNW 6 9 3 5 1007.4 1007.4 0.0
18/07:00pm 31.0 36.7 25.6 73 3.8 WNW 6 9 3 5 1006.9 1006.9 0.0
18/06:30pm 31.7 37.5 26.0 72 4.1 W 7 13 4 7 1006.6 1006.6 0.0
18/06:00pm 31.4 36.9 26.2 74 3.7 WNW 9 15 5 8 1006.0 1006.0 0.0
18/05:30pm 31.3 37.3 26.3 75 3.6 W 7 13 4 7 1006.0 1006.0 0.0
18/05:00pm 32.1 37.9 26.6 72 4.0 W 9 15 5 8 1005.7 1005.7 0.0
18/04:30pm 31.9 37.8 26.7 74 3.7 W 9 15 5 8 1006.0 1006.0 0.0
18/04:00pm 31.6 37.1 26.2 73 3.9 WNW 9 13 5 7 1006.7 1006.7 0.0
18/03:30pm 31.8 37.8 26.4 73 3.9 W 7 15 4 8 1006.7 1006.7 0.0
18/03:00pm 32.1 37.4 26.4 72 4.1 W 11 17 6 9 1007.4 1007.4 0.0
18/02:30pm 33.5 38.7 26.8 68 4.8 W 13 22 7 12 1007.3 1007.3 0.0
18/02:00pm 33.6 38.1 25.8 63 5.6 W 13 20 7 11 1008.0 1008.0 0.0
18/01:30pm 33.4 38.5 26.2 66 5.2 WNW 11 20 6 11 1008.0 1008.0 0.0
18/01:00pm 33.3 38.4 26.1 66 5.2 WNW 11 19 6 10 1008.4 1008.4 0.0
18/12:30pm 32.3 37.7 26.6 72 4.1 WNW 11 17 6 9 1008.8 1008.8 0.0
18/12:00pm 32.7 38.3 26.3 69 4.6 WNW 9 15 5 8 1009.4 1009.4 0.0
18/11:30am 33.1 38.9 26.6 68 4.7 WNW 9 15 5 8 1009.5 1009.5 0.0
18/11:00am 33.4 39.3 26.7 68 4.8 W 9 13 5 7 1009.8 1009.8 0.0
18/10:30am 33.1 38.8 26.4 68 4.8 WNW 9 17 5 9 1009.8 1009.8 0.0
18/10:00am 32.4 38.0 25.7 68 4.8 WNW 7 15 4 8 1009.7 1009.7 0.0
18/09:30am 32.9 38.9 26.9 70 4.3 WNW 9 17 5 9 1009.3 1009.3 0.0
18/09:00am 32.1 38.1 26.4 72 4.1 WNW 7 15 4 8 1008.9 1008.9 0.0
18/08:30am 31.9 38.1 26.4 72 3.9 WNW 6 11 3 6 1008.6 1008.6 0.0
18/08:00am 30.5 36.6 26.2 78 3.1 NW 6 9 3 5 1008.6 1008.6 0.0
18/07:30am 30.3 37.0 26.5 80 2.7 NW 4 7 2 4 1008.2 1008.2 0.0
18/07:00am 29.8 35.8 26.0 80 2.7 NW 6 9 3 5 1007.9 1007.9 0.0
18/06:30am 29.7 35.6 25.9 80 2.7 NW 6 9 3 5 1007.4 1007.4 0.0
18/06:00am 29.6 36.3 26.0 81 2.6 NW 2 6 1 3 1006.8 1006.8 0.0
18/05:30am 29.8 35.8 26.0 80 2.7 NW 6 9 3 5 1006.4 1006.4 0.0
18/05:00am 29.8 35.6 25.8 79 2.8 WNW 6 7 3 4 1006.1 1006.1 0.0
18/04:30am 29.9 35.9 26.1 80 2.7 WNW 6 9 3 5 1005.9 1005.9 0.0
18/04:00am 29.9 36.3 26.1 80 2.7 WNW 4 7 2 4 1005.8 1005.8 0.0
18/03:30am 29.9 35.9 26.1 80 2.7 NW 6 11 3 6 1005.7 1005.7 0.0
18/03:00am 30.0 36.8 26.2 80 2.7 NW 2 6 1 3 1006.0 1006.0 0.0
18/02:30am 30.1 35.9 25.8 78 3.1 WNW 6 9 3 5 1005.7 1005.7 0.0
18/02:00am 30.2 36.0 26.1 79 2.9 WNW 7 11 4 6 1005.8 1005.8 0.0
18/01:30am 30.1 36.3 25.8 78 3.1 NW 4 6 2 3 1006.7 1006.7 0.0
18/01:00am 30.0 36.3 26.0 79 2.8 NW 4 7 2 4 1007.0 1007.0 0.0
18/12:30am 30.3 36.3 26.0 78 3.1 NNW 6 9 3 5 1007.0 1007.0 0.0
18/12:00am 30.4 35.6 25.7 76 3.3 NNW 9 19 5 10 1006.7 1006.7 0.0
 
Date/Time
CST
Tmp

°C
App
Tmp
°C
Dew
Point
°C
Rel
Hum
%
Delta-T

°C
Wind Press
QNH
hPa
Press
MSL
hPa
Rain
since
9 am
mm
Dir
 
Spd
km/h
Gust
km/h
Spd
kts
Gust
kts
17/11:30pm 30.5 35.9 26.0 77 3.2 NW 9 17 5 9 1006.5 1006.5 0.0
17/11:00pm 30.4 35.9 26.1 78 3.1 WNW 9 17 5 9 1006.8 1006.8 0.0
17/10:30pm 30.6 35.8 26.3 78 3.1 W 11 19 6 10 1007.0 1007.0 0.0
17/10:00pm 30.6 36.6 26.3 78 3.1 W 7 13 4 7 1007.6 1007.6 0.0
17/09:30pm 30.6 36.4 26.1 77 3.2 W 7 13 4 7 1007.9 1007.9 0.0
17/09:00pm 30.7 36.4 26.4 78 3.1 W 9 15 5 8 1007.7 1007.7 0.0
17/08:30pm 30.6 36.4 26.1 77 3.2 W 7 15 4 8 1007.4 1007.4 0.0
17/08:00pm 30.5 36.1 25.8 76 3.3 WNW 7 13 4 7 1007.1 1007.1 0.0
17/07:30pm 30.6 36.1 26.1 77 3.2 WNW 9 17 5 9 1006.7 1006.7 0.0
17/07:00pm 30.7 36.0 25.8 75 3.5 WNW 9 17 5 9 1005.7 1005.7 0.0
17/06:30pm 30.8 36.0 26.3 77 3.2 WNW 11 19 6 10 1005.1 1005.1 0.0
17/06:00pm 30.8 35.9 26.1 76 3.4 WNW 11 22 6 12 1004.9 1004.9 0.0
17/05:30pm 30.8 36.4 26.3 77 3.2 NW 9 15 5 8 1004.3 1004.3 0.0
17/05:00pm 30.8 36.6 26.1 76 3.4 WNW 7 13 4 7 1004.9 1004.9 0.0
17/04:30pm 30.8 36.1 25.8 74 3.6 WNW 9 17 5 9 1004.6 1004.6 0.0
17/04:00pm 31.1 36.4 25.9 74 3.7 WNW 9 17 5 9 1004.9 1004.9 0.0
17/03:30pm 31.6 37.4 26.6 75 3.6 WNW 9 15 5 8 1005.2 1005.2 0.0
17/03:00pm 33.4 38.5 26.7 68 4.8 WNW 13 20 7 11 1004.6 1004.6 0.0
17/02:30pm 33.7 39.4 27.0 68 4.9 WNW 11 19 6 10 1005.2 1005.2 0.0
17/02:00pm 33.4 38.9 26.7 68 4.8 NW 11 22 6 12 1005.8 1005.8 0.0
17/01:30pm 33.5 38.8 26.5 67 5.1 WNW 11 19 6 10 1006.4 1006.4 0.0
17/01:00pm 33.2 38.7 26.2 66 5.0 WNW 9 17 5 9 1006.8 1006.8 0.0
17/12:30pm 33.1 38.4 26.4 68 4.8 WNW 11 19 6 10 1007.0 1007.0 0.0
17/12:00pm 33.1 38.4 26.4 68 4.8 WNW 11 17 6 9 1007.3 1007.3 0.0
17/11:30am 33.2 39.1 26.7 68 4.7 WNW 9 17 5 9 1007.7 1007.7 0.0
17/11:00am 33.2 39.1 26.7 68 4.7 WNW 9 17 5 9 1007.9 1007.9 0.0
17/10:30am 33.0 38.6 26.3 68 4.8 WNW 9 15 5 8 1008.1 1008.1 0.0
17/10:00am 32.4 38.5 26.5 71 4.2 NW 7 15 4 8 1008.1 1008.1 0.0
17/09:30am 32.1 37.8 25.9 70 4.4 WNW 7 11 4 6 1008.0 1008.0 0.0
17/09:00am 32.3 37.6 25.9 69 4.6 WNW 9 13 5 7 1007.5 1007.5 0.0
17/08:30am 31.9 37.7 26.0 71 4.2 WNW 7 13 4 7 1007.2 1007.2 0.0
17/08:00am 31.5 37.6 26.5 75 3.6 NW 7 11 4 6 1007.1 1007.1 0.0
17/07:30am 30.7 36.9 26.6 79 2.9 NW 7 15 4 8 1007.0 1007.0 0.0
17/07:00am 30.2 36.0 26.1 79 2.9 NW 7 17 4 9 1006.7 1006.7 0.0
17/06:30am 30.1 36.3 26.3 80 2.7 WNW 6 9 3 5 1006.4 1006.4 0.0
17/06:00am 30.0 35.8 26.0 79 2.9 WNW 7 13 4 7 1005.8 1005.8 0.0
17/05:30am 30.0 35.4 25.5 77 3.2 WNW 7 13 4 7 1005.6 1005.6 0.0
17/05:00am 30.1 35.1 25.4 76 3.3 WNW 9 19 5 10 1005.4 1005.4 0.0
17/04:30am 30.2 36.0 26.1 79 2.9 WNW 7 15 4 8 1005.2 1005.2 0.0
17/04:00am 30.2 35.9 26.4 80 2.7 WNW 9 20 5 11 1005.1 1005.1 0.0
17/03:30am 30.2 36.0 26.6 81 2.6 WNW 9 17 5 9 1005.2 1005.2 0.0
17/03:00am 30.3 36.2 26.7 81 2.6 WNW 9 17 5 9 1005.0 1005.0 0.0
17/02:30am 30.2 35.3 26.1 79 2.9 WNW 11 19 6 10 1005.1 1005.1 0.0
17/02:00am 30.3 36.2 26.7 81 2.6 WNW 9 17 5 9 1005.4 1005.4 0.0
17/01:30am 30.3 35.3 26.0 78 3.1 W 11 17 6 9 1005.6 1005.6 0.0
17/01:00am 30.4 35.3 25.9 77 3.2 WNW 11 20 6 11 1006.2 1006.2 0.0
17/12:30am 30.4 36.0 26.3 79 2.9 WNW 9 17 5 9 1006.4 1006.4 0.0
17/12:00am 30.5 36.0 26.2 78 3.1 WNW 9 17 5 9 1006.8 1006.8 0.0
 
Date/Time
CST
Tmp

°C
App
Tmp
°C
Dew
Point
°C
Rel
Hum
%
Delta-T

°C
Wind Press
QNH
hPa
Press
MSL
hPa
Rain
since
9 am
mm
Dir
 
Spd
km/h
Gust
km/h
Spd
kts
Gust
kts
16/11:30pm 30.5 35.9 26.0 77 3.2 WNW 9 15 5 8 1007.2 1007.2 0.0
16/11:00pm 30.6 36.2 26.3 78 3.1 W 9 19 5 10 1007.0 1007.0 0.0
16/10:30pm 30.5 35.9 26.0 77 3.2 WNW 9 15 5 8 1006.5 1006.5 0.0
16/10:00pm 30.6 36.1 26.1 77 3.2 WNW 9 17 5 9 1006.5 1006.5 0.0
16/09:30pm 30.6 36.1 26.1 77 3.2 W 9 15 5 8 1006.3 1006.3 0.0
16/09:00pm 30.6 36.2 26.3 78 3.1 WNW 9 17 5 9 1006.4 1006.4 0.0
16/08:30pm 30.7 36.1 26.0 76 3.4 WNW 9 15 5 8 1006.0 1006.0 0.0
16/08:00pm 30.7 36.4 26.4 78 3.1 WNW 9 20 5 11 1005.5 1005.5 0.0

Latest Capital City Observations: Canberra | Sydney | Melbourne | Brisbane | Adelaide | Perth | Hobart | Darwin

Other Formats:

Comma delimited format used in spreadsheet applications
http://www.bom.gov.au/fwo/IDD60901/IDD60901.94116.axf

JavaScript Object Notation format (JSON) in row-major order
http://www.bom.gov.au/fwo/IDD60901/IDD60901.94116.json